sensor_id;sensor_type;location;lat;lon;timestamp;pressure;altitude;pressure_sealevel;temperature;humidity
36980;BME280;22891;50.562;7.272;2023-02-13T06:33:39;102073.00;;;5.79;nan
36980;BME280;22891;50.562;7.272;2023-02-13T06:36:06;102117.00;;;5.81;nan
36980;BME280;22891;50.562;7.272;2023-02-13T06:38:32;102129.00;;;5.85;nan
36980;BME280;22891;50.562;7.272;2023-02-13T06:40:59;102142.00;;;5.86;nan
36980;BME280;22891;50.562;7.272;2023-02-13T06:43:26;102160.00;;;5.83;nan
36980;BME280;22891;50.562;7.272;2023-02-13T06:45:52;102166.00;;;5.71;nan
36980;BME280;22891;50.562;7.272;2023-02-13T06:48:18;102156.00;;;5.70;nan
36980;BME280;22891;50.562;7.272;2023-02-13T06:50:44;102156.00;;;5.45;nan
36980;BME280;22891;50.562;7.272;2023-02-13T06:53:10;102140.00;;;5.24;nan
36980;BME280;22891;50.562;7.272;2023-02-13T06:55:36;102131.00;;;5.13;nan
36980;BME280;22891;50.562;7.272;2023-02-13T06:58:04;102119.00;;;4.98;nan
36980;BME280;22891;50.562;7.272;2023-02-13T07:00:30;102102.00;;;4.90;nan
36980;BME280;22891;50.562;7.272;2023-02-13T07:03:04;102094.00;;;4.83;nan
36980;BME280;22891;50.562;7.272;2023-02-13T07:05:30;102082.00;;;4.77;nan
36980;BME280;22891;50.562;7.272;2023-02-13T07:07:56;102076.00;;;4.63;nan
36980;BME280;22891;50.562;7.272;2023-02-13T07:10:22;102064.00;;;4.60;nan
36980;BME280;22891;50.562;7.272;2023-02-13T07:15:14;102061.00;;;4.59;nan
36980;BME280;22891;50.562;7.272;2023-02-13T07:17:41;102061.00;;;4.58;nan
36980;BME280;22891;50.562;7.272;2023-02-13T07:20:08;102044.00;;;4.56;nan
36980;BME280;22891;50.562;7.272;2023-02-13T07:22:34;102004.00;;;4.33;nan
36980;BME280;22891;50.562;7.272;2023-02-13T07:25:00;102025.00;;;4.52;nan
36980;BME280;22891;50.562;7.272;2023-02-13T07:27:26;102021.00;;;4.49;nan
36980;BME280;22891;50.562;7.272;2023-02-13T07:29:56;102017.00;;;4.32;nan
36980;BME280;22891;50.562;7.272;2023-02-13T07:32:23;102005.00;;;4.36;nan
36980;BME280;22891;50.562;7.272;2023-02-13T07:34:49;101994.00;;;4.24;nan
36980;BME280;22891;50.562;7.272;2023-02-13T07:37:15;101990.00;;;4.34;nan
36980;BME280;22891;50.562;7.272;2023-02-13T07:39:41;101979.00;;;4.40;nan
36980;BME280;22891;50.562;7.272;2023-02-13T07:42:07;101973.00;;;4.46;nan
36980;BME280;22891;50.562;7.272;2023-02-13T07:44:32;101972.00;;;4.48;nan
36980;BME280;22891;50.562;7.272;2023-02-13T07:46:58;101975.00;;;4.55;nan
36980;BME280;22891;50.562;7.272;2023-02-13T07:49:26;101970.00;;;4.68;nan
36980;BME280;22891;50.562;7.272;2023-02-13T07:51:51;101968.00;;;4.71;nan
36980;BME280;22891;50.562;7.272;2023-02-13T07:54:17;101979.00;;;4.74;nan
36980;BME280;22891;50.562;7.272;2023-02-13T07:56:43;101980.00;;;4.78;nan
36980;BME280;22891;50.562;7.272;2023-02-13T07:59:10;101988.00;;;4.79;nan
36980;BME280;22891;50.562;7.272;2023-02-13T08:01:35;101986.00;;;4.91;nan
36980;BME280;22891;50.562;7.272;2023-02-13T08:04:01;101980.00;;;4.85;nan
36980;BME280;22891;50.562;7.272;2023-02-13T08:06:28;101985.00;;;4.99;nan
36980;BME280;22891;50.562;7.272;2023-02-13T08:08:53;101987.00;;;5.19;nan
36980;BME280;22891;50.562;7.272;2023-02-13T08:14:18;101996.00;;;5.30;nan
36980;BME280;22891;50.562;7.272;2023-02-13T08:16:44;102023.00;;;5.62;nan
36980;BME280;22891;50.562;7.272;2023-02-13T08:19:10;102021.00;;;5.59;nan
36980;BME280;22891;50.562;7.272;2023-02-13T08:21:35;102025.00;;;5.72;nan
36980;BME280;22891;50.562;7.272;2023-02-13T08:24:03;102031.00;;;5.71;nan
36980;BME280;22891;50.562;7.272;2023-02-13T08:26:33;102044.00;;;5.78;nan
36980;BME280;22891;50.562;7.272;2023-02-13T08:28:59;102060.00;;;5.78;nan
36980;BME280;22891;50.562;7.272;2023-02-13T08:31:25;102057.00;;;5.64;nan
36980;BME280;22891;50.562;7.272;2023-02-13T08:33:51;102057.00;;;5.76;nan
36980;BME280;22891;50.562;7.272;2023-02-13T08:36:17;102064.00;;;5.92;nan
36980;BME280;22891;50.562;7.272;2023-02-13T08:38:45;102073.00;;;5.92;nan
36980;BME280;22891;50.562;7.272;2023-02-13T08:41:12;102079.00;;;5.96;nan
36980;BME280;22891;50.562;7.272;2023-02-13T08:43:38;102079.00;;;6.02;nan
36980;BME280;22891;50.562;7.272;2023-02-13T08:46:04;102093.00;;;6.07;nan
36980;BME280;22891;50.562;7.272;2023-02-13T08:48:30;102095.00;;;6.05;nan
36980;BME280;22891;50.562;7.272;2023-02-13T08:50:56;102104.00;;;6.28;nan
36980;BME280;22891;50.562;7.272;2023-02-13T08:53:22;102114.00;;;6.32;nan
36980;BME280;22891;50.562;7.272;2023-02-13T08:55:56;102133.00;;;6.27;nan
36980;BME280;22891;50.562;7.272;2023-02-13T08:58:22;102131.00;;;6.36;nan
36980;BME280;22891;50.562;7.272;2023-02-13T09:00:48;102151.00;;;6.29;nan
36980;BME280;22891;50.562;7.272;2023-02-13T09:03:14;102136.00;;;6.44;nan
36980;BME280;22891;50.562;7.272;2023-02-13T09:05:40;102152.00;;;6.39;nan
36980;BME280;22891;50.562;7.272;2023-02-13T09:08:05;102142.00;;;6.46;nan
36980;BME280;22891;50.562;7.272;2023-02-13T09:10:33;102169.00;;;6.49;nan
36980;BME280;22891;50.562;7.272;2023-02-13T22:26:21;101937.00;;;2.98;nan
36980;BME280;22891;50.562;7.272;2023-02-13T22:28:48;101890.00;;;3.04;nan
36980;BME280;22891;50.562;7.272;2023-02-13T22:31:15;101896.00;;;3.08;nan
36980;BME280;22891;50.562;7.272;2023-02-13T22:33:41;101908.00;;;3.12;nan
36980;BME280;22891;50.562;7.272;2023-02-13T22:36:07;101913.00;;;3.12;nan
36980;BME280;22891;50.562;7.272;2023-02-13T22:38:35;101912.00;;;3.17;nan
36980;BME280;22891;50.562;7.272;2023-02-13T22:41:34;101916.00;;;3.07;nan
36980;BME280;22891;50.562;7.272;2023-02-13T22:43:59;101966.00;;;2.72;nan
36980;BME280;22891;50.562;7.272;2023-02-13T22:46:29;101953.00;;;2.66;nan
36980;BME280;22891;50.562;7.272;2023-02-13T22:48:55;101938.00;;;2.77;nan
36980;BME280;22891;50.562;7.272;2023-02-13T22:51:27;101944.00;;;2.73;nan
36980;BME280;22891;50.562;7.272;2023-02-13T22:53:54;101939.00;;;2.75;nan
36980;BME280;22891;50.562;7.272;2023-02-13T22:56:21;101941.00;;;2.69;nan
36980;BME280;22891;50.562;7.272;2023-02-13T22:58:46;101944.00;;;2.78;nan
36980;BME280;22891;50.562;7.272;2023-02-13T23:01:15;101942.00;;;2.82;nan
36980;BME280;22891;50.562;7.272;2023-02-13T23:03:41;101943.00;;;2.74;nan
36980;BME280;22891;50.562;7.272;2023-02-13T23:06:09;101936.00;;;2.82;nan
36980;BME280;22891;50.562;7.272;2023-02-13T23:08:36;101944.00;;;2.65;nan
36980;BME280;22891;50.562;7.272;2023-02-13T23:11:07;101946.00;;;2.51;nan
36980;BME280;22891;50.562;7.272;2023-02-13T23:13:52;101941.00;;;2.63;nan
36980;BME280;22891;50.562;7.272;2023-02-13T23:16:17;101936.00;;;2.60;nan
36980;BME280;22891;50.562;7.272;2023-02-13T23:18:43;101937.00;;;2.67;nan
36980;BME280;22891;50.562;7.272;2023-02-13T23:21:09;101939.00;;;2.65;nan
36980;BME280;22891;50.562;7.272;2023-02-13T23:23:36;101949.00;;;2.65;nan
36980;BME280;22891;50.562;7.272;2023-02-13T23:26:07;101960.00;;;2.47;nan
36980;BME280;22891;50.562;7.272;2023-02-13T23:28:33;101949.00;;;2.44;nan
36980;BME280;22891;50.562;7.272;2023-02-13T23:31:00;101948.00;;;2.31;nan
36980;BME280;22891;50.562;7.272;2023-02-13T23:33:26;101961.00;;;2.32;nan
36980;BME280;22891;50.562;7.272;2023-02-13T23:35:52;101979.00;;;2.46;nan
36980;BME280;22891;50.562;7.272;2023-02-13T23:38:18;101974.00;;;2.46;nan
36980;BME280;22891;50.562;7.272;2023-02-13T23:40:44;101978.00;;;2.48;nan
36980;BME280;22891;50.562;7.272;2023-02-13T23:43:10;101981.00;;;2.47;nan
36980;BME280;22891;50.562;7.272;2023-02-13T23:45:36;101980.00;;;2.31;nan
36980;BME280;22891;50.562;7.272;2023-02-13T23:48:04;101984.00;;;2.12;nan
36980;BME280;22891;50.562;7.272;2023-02-13T23:50:29;101969.00;;;2.22;nan
36980;BME280;22891;50.562;7.272;2023-02-13T23:52:57;101972.00;;;2.17;nan
36980;BME280;22891;50.562;7.272;2023-02-13T23:59:15;101966.00;;;1.86;nan
